sensor_id;sensor_type;location;lat;lon;timestamp;P1;durP1;ratioP1;P2;durP2;ratioP2
65665;SDS011;52365;47.464;18.976;2023-02-28T00:00:33;12.27;;;6.03;;
65665;SDS011;52365;47.464;18.976;2023-02-28T00:01:10;10.10;;;6.00;;
65665;SDS011;52365;47.464;18.976;2023-02-28T00:01:47;9.68;;;5.75;;
65665;SDS011;52365;47.464;18.976;2023-02-28T00:02:23;12.05;;;6.20;;
65665;SDS011;52365;47.464;18.976;2023-02-28T00:02:59;12.05;;;6.10;;
65665;SDS011;52365;47.464;18.976;2023-02-28T00:03:35;10.07;;;5.85;;
65665;SDS011;52365;47.464;18.976;2023-02-28T00:04:11;9.68;;;6.00;;
65665;SDS011;52365;47.464;18.976;2023-02-28T00:04:47;11.30;;;6.12;;
65665;SDS011;52365;47.464;18.976;2023-02-28T00:05:28;9.70;;;5.87;;
65665;SDS011;52365;47.464;18.976;2023-02-28T00:06:05;9.70;;;5.75;;
65665;SDS011;52365;47.464;18.976;2023-02-28T00:06:42;9.90;;;5.70;;
65665;SDS011;52365;47.464;18.976;2023-02-28T00:07:18;11.07;;;6.10;;
65665;SDS011;52365;47.464;18.976;2023-02-28T00:07:55;9.45;;;5.60;;
65665;SDS011;52365;47.464;18.976;2023-02-28T00:08:31;11.18;;;6.05;;
65665;SDS011;52365;47.464;18.976;2023-02-28T00:09:07;11.10;;;6.30;;
65665;SDS011;52365;47.464;18.976;2023-02-28T00:09:43;11.00;;;6.10;;
65665;SDS011;52365;47.464;18.976;2023-02-28T00:10:38;11.07;;;5.70;;
65665;SDS011;52365;47.464;18.976;2023-02-28T00:11:14;9.50;;;5.87;;
65665;SDS011;52365;47.464;18.976;2023-02-28T00:11:50;12.30;;;5.93;;
65665;SDS011;52365;47.464;18.976;2023-02-28T00:12:26;8.80;;;5.62;;
65665;SDS011;52365;47.464;18.976;2023-02-28T00:13:04;10.73;;;6.15;;
65665;SDS011;52365;47.464;18.976;2023-02-28T00:13:42;11.00;;;6.28;;
65665;SDS011;52365;47.464;18.976;2023-02-28T00:14:23;9.45;;;5.95;;
65665;SDS011;52365;47.464;18.976;2023-02-28T00:14:59;10.25;;;6.12;;
65665;SDS011;52365;47.464;18.976;2023-02-28T00:15:36;10.27;;;6.00;;
65665;SDS011;52365;47.464;18.976;2023-02-28T00:16:13;9.80;;;6.15;;
65665;SDS011;52365;47.464;18.976;2023-02-28T00:16:54;9.30;;;5.80;;
65665;SDS011;52365;47.464;18.976;2023-02-28T00:17:30;9.50;;;6.10;;
65665;SDS011;52365;47.464;18.976;2023-02-28T00:18:06;10.50;;;6.05;;
65665;SDS011;52365;47.464;18.976;2023-02-28T00:18:42;10.50;;;6.07;;
65665;SDS011;52365;47.464;18.976;2023-02-28T00:19:18;10.32;;;6.30;;
65665;SDS011;52365;47.464;18.976;2023-02-28T00:19:54;10.23;;;6.15;;
65665;SDS011;52365;47.464;18.976;2023-02-28T00:20:30;10.57;;;6.22;;
65665;SDS011;52365;47.464;18.976;2023-02-28T00:21:06;10.68;;;6.00;;
65665;SDS011;52365;47.464;18.976;2023-02-28T00:21:42;11.10;;;6.10;;
65665;SDS011;52365;47.464;18.976;2023-02-28T00:22:20;10.27;;;5.97;;
65665;SDS011;52365;47.464;18.976;2023-02-28T00:22:56;9.65;;;6.15;;
65665;SDS011;52365;47.464;18.976;2023-02-28T00:23:32;10.05;;;6.00;;
65665;SDS011;52365;47.464;18.976;2023-02-28T00:24:09;10.75;;;6.20;;
65665;SDS011;52365;47.464;18.976;2023-02-28T00:24:45;10.43;;;5.97;;
65665;SDS011;52365;47.464;18.976;2023-02-28T00:25:23;11.05;;;6.00;;
65665;SDS011;52365;47.464;18.976;2023-02-28T00:26:00;10.90;;;6.30;;
65665;SDS011;52365;47.464;18.976;2023-02-28T00:26:36;11.25;;;6.20;;
65665;SDS011;52365;47.464;18.976;2023-02-28T00:27:13;12.45;;;6.22;;
65665;SDS011;52365;47.464;18.976;2023-02-28T00:27:50;11.25;;;6.20;;
65665;SDS011;52365;47.464;18.976;2023-02-28T00:28:27;9.20;;;5.95;;
65665;SDS011;52365;47.464;18.976;2023-02-28T00:29:03;10.32;;;6.20;;
65665;SDS011;52365;47.464;18.976;2023-02-28T00:29:39;10.95;;;6.40;;
65665;SDS011;52365;47.464;18.976;2023-02-28T00:30:16;10.85;;;6.20;;
65665;SDS011;52365;47.464;18.976;2023-02-28T00:30:54;11.05;;;6.10;;
65665;SDS011;52365;47.464;18.976;2023-02-28T00:31:30;10.18;;;6.00;;
65665;SDS011;52365;47.464;18.976;2023-02-28T00:32:06;11.18;;;6.10;;
65665;SDS011;52365;47.464;18.976;2023-02-28T00:32:42;10.40;;;6.03;;
65665;SDS011;52365;47.464;18.976;2023-02-28T00:33:19;9.52;;;6.05;;
65665;SDS011;52365;47.464;18.976;2023-02-28T00:33:55;11.30;;;6.03;;
65665;SDS011;52365;47.464;18.976;2023-02-28T00:34:31;8.73;;;5.68;;
65665;SDS011;52365;47.464;18.976;2023-02-28T00:35:13;11.52;;;6.40;;
65665;SDS011;52365;47.464;18.976;2023-02-28T00:35:49;11.12;;;6.30;;
65665;SDS011;52365;47.464;18.976;2023-02-28T00:36:25;11.68;;;6.10;;
65665;SDS011;52365;47.464;18.976;2023-02-28T00:37:01;9.93;;;6.07;;
65665;SDS011;52365;47.464;18.976;2023-02-28T00:37:37;11.60;;;6.47;;
65665;SDS011;52365;47.464;18.976;2023-02-28T00:38:14;11.30;;;5.93;;
65665;SDS011;52365;47.464;18.976;2023-02-28T00:38:51;10.80;;;6.40;;
65665;SDS011;52365;47.464;18.976;2023-02-28T00:39:27;11.10;;;6.28;;
65665;SDS011;52365;47.464;18.976;2023-02-28T00:40:04;9.77;;;6.00;;
65665;SDS011;52365;47.464;18.976;2023-02-28T00:40:41;10.02;;;5.75;;
65665;SDS011;52365;47.464;18.976;2023-02-28T00:41:17;9.20;;;6.18;;
65665;SDS011;52365;47.464;18.976;2023-02-28T00:41:54;8.93;;;5.93;;
65665;SDS011;52365;47.464;18.976;2023-02-28T00:42:30;10.90;;;5.65;;
65665;SDS011;52365;47.464;18.976;2023-02-28T00:43:06;9.88;;;5.87;;
65665;SDS011;52365;47.464;18.976;2023-02-28T00:43:42;11.77;;;6.10;;
65665;SDS011;52365;47.464;18.976;2023-02-28T00:44:18;11.45;;;6.22;;
65665;SDS011;52365;47.464;18.976;2023-02-28T00:44:57;10.88;;;6.00;;
65665;SDS011;52365;47.464;18.976;2023-02-28T00:45:33;10.50;;;6.07;;
65665;SDS011;52365;47.464;18.976;2023-02-28T00:46:09;10.68;;;6.22;;
65665;SDS011;52365;47.464;18.976;2023-02-28T00:46:45;9.80;;;5.80;;
65665;SDS011;52365;47.464;18.976;2023-02-28T00:47:21;9.57;;;6.03;;
65665;SDS011;52365;47.464;18.976;2023-02-28T00:47:57;11.18;;;6.28;;
65665;SDS011;52365;47.464;18.976;2023-02-28T00:48:33;9.80;;;6.05;;
65665;SDS011;52365;47.464;18.976;2023-02-28T00:49:09;9.68;;;5.72;;
65665;SDS011;52365;47.464;18.976;2023-02-28T00:49:45;10.57;;;5.85;;
65665;SDS011;52365;47.464;18.976;2023-02-28T00:50:21;9.02;;;5.78;;
65665;SDS011;52365;47.464;18.976;2023-02-28T00:50:58;10.13;;;6.07;;
65665;SDS011;52365;47.464;18.976;2023-02-28T00:51:34;10.13;;;5.75;;
65665;SDS011;52365;47.464;18.976;2023-02-28T00:52:10;11.35;;;6.20;;
65665;SDS011;52365;47.464;18.976;2023-02-28T00:52:46;8.93;;;5.78;;
65665;SDS011;52365;47.464;18.976;2023-02-28T00:53:23;10.00;;;6.18;;
65665;SDS011;52365;47.464;18.976;2023-02-28T00:53:59;10.10;;;5.80;;
65665;SDS011;52365;47.464;18.976;2023-02-28T00:54:35;11.15;;;6.15;;
65665;SDS011;52365;47.464;18.976;2023-02-28T00:55:11;10.25;;;6.18;;
65665;SDS011;52365;47.464;18.976;2023-02-28T00:55:48;9.40;;;5.78;;
65665;SDS011;52365;47.464;18.976;2023-02-28T00:56:25;9.38;;;5.80;;
65665;SDS011;52365;47.464;18.976;2023-02-28T00:57:01;10.23;;;5.78;;
65665;SDS011;52365;47.464;18.976;2023-02-28T00:57:37;11.63;;;6.07;;
65665;SDS011;52365;47.464;18.976;2023-02-28T00:58:13;10.80;;;6.18;;
65665;SDS011;52365;47.464;18.976;2023-02-28T00:58:49;10.20;;;5.65;;
65665;SDS011;52365;47.464;18.976;2023-02-28T00:59:25;9.77;;;5.85;;
65665;SDS011;52365;47.464;18.976;2023-02-28T01:00:01;10.88;;;5.85;;
65665;SDS011;52365;47.464;18.976;2023-02-28T01:00:39;9.30;;;5.82;;
65665;SDS011;52365;47.464;18.976;2023-02-28T01:01:15;8.85;;;5.68;;
65665;SDS011;52365;47.464;18.976;2023-02-28T01:01:51;9.45;;;5.50;;
65665;SDS011;52365;47.464;18.976;2023-02-28T01:02:27;9.05;;;5.78;;
65665;SDS011;52365;47.464;18.976;2023-02-28T01:03:03;8.70;;;5.57;;
65665;SDS011;52365;47.464;18.976;2023-02-28T01:03:39;10.65;;;5.78;;
65665;SDS011;52365;47.464;18.976;2023-02-28T01:04:15;9.10;;;5.22;;
65665;SDS011;52365;47.464;18.976;2023-02-28T01:04:51;9.27;;;5.47;;
65665;SDS011;52365;47.464;18.976;2023-02-28T01:05:27;10.35;;;5.70;;
65665;SDS011;52365;47.464;18.976;2023-02-28T01:06:04;9.73;;;5.55;;
65665;SDS011;52365;47.464;18.976;2023-02-28T01:06:40;9.50;;;5.50;;
65665;SDS011;52365;47.464;18.976;2023-02-28T01:07:16;10.45;;;5.47;;
65665;SDS011;52365;47.464;18.976;2023-02-28T01:07:52;9.10;;;5.70;;
65665;SDS011;52365;47.464;18.976;2023-02-28T01:08:29;9.25;;;5.50;;
65665;SDS011;52365;47.464;18.976;2023-02-28T01:09:05;9.18;;;5.47;;
65665;SDS011;52365;47.464;18.976;2023-02-28T01:09:42;9.63;;;5.80;;
65665;SDS011;52365;47.464;18.976;2023-02-28T01:10:18;9.95;;;5.82;;
65665;SDS011;52365;47.464;18.976;2023-02-28T01:10:54;9.60;;;5.50;;
65665;SDS011;52365;47.464;18.976;2023-02-28T01:11:30;9.32;;;5.50;;
65665;SDS011;52365;47.464;18.976;2023-02-28T01:12:07;9.13;;;5.28;;
65665;SDS011;52365;47.464;18.976;2023-02-28T01:12:44;8.82;;;5.50;;
65665;SDS011;52365;47.464;18.976;2023-02-28T01:13:20;10.10;;;5.70;;
65665;SDS011;52365;47.464;18.976;2023-02-28T01:13:56;10.07;;;5.62;;
65665;SDS011;52365;47.464;18.976;2023-02-28T01:14:33;9.07;;;5.55;;
65665;SDS011;52365;47.464;18.976;2023-02-28T01:15:10;10.25;;;5.57;;
65665;SDS011;52365;47.464;18.976;2023-02-28T01:15:50;9.27;;;5.55;;
65665;SDS011;52365;47.464;18.976;2023-02-28T01:16:28;9.90;;;5.40;;
65665;SDS011;52365;47.464;18.976;2023-02-28T01:17:05;9.52;;;5.43;;
65665;SDS011;52365;47.464;18.976;2023-02-28T01:17:41;8.60;;;5.03;;
65665;SDS011;52365;47.464;18.976;2023-02-28T01:18:17;9.85;;;5.60;;
65665;SDS011;52365;47.464;18.976;2023-02-28T01:18:54;9.35;;;5.30;;
65665;SDS011;52365;47.464;18.976;2023-02-28T01:19:30;10.98;;;5.35;;
65665;SDS011;52365;47.464;18.976;2023-02-28T01:20:06;7.80;;;5.12;;
65665;SDS011;52365;47.464;18.976;2023-02-28T01:20:42;10.80;;;5.40;;
65665;SDS011;52365;47.464;18.976;2023-02-28T01:21:19;8.00;;;5.03;;
65665;SDS011;52365;47.464;18.976;2023-02-28T01:21:56;11.07;;;5.57;;
65665;SDS011;52365;47.464;18.976;2023-02-28T01:22:34;10.15;;;6.07;;
65665;SDS011;52365;47.464;18.976;2023-02-28T01:23:10;8.63;;;5.40;;
65665;SDS011;52365;47.464;18.976;2023-02-28T01:23:46;10.20;;;5.18;;
65665;SDS011;52365;47.464;18.976;2023-02-28T01:24:23;10.95;;;5.45;;
65665;SDS011;52365;47.464;18.976;2023-02-28T01:24:59;10.10;;;5.78;;
65665;SDS011;52365;47.464;18.976;2023-02-28T01:25:35;10.95;;;5.62;;
65665;SDS011;52365;47.464;18.976;2023-02-28T01:26:15;10.18;;;5.60;;
65665;SDS011;52365;47.464;18.976;2023-02-28T01:26:54;10.70;;;5.60;;
65665;SDS011;52365;47.464;18.976;2023-02-28T01:27:30;8.60;;;5.18;;
65665;SDS011;52365;47.464;18.976;2023-02-28T01:28:06;10.15;;;5.32;;
65665;SDS011;52365;47.464;18.976;2023-02-28T01:28:42;8.05;;;5.05;;
65665;SDS011;52365;47.464;18.976;2023-02-28T01:29:18;9.57;;;5.28;;
65665;SDS011;52365;47.464;18.976;2023-02-28T01:29:54;8.57;;;5.30;;
65665;SDS011;52365;47.464;18.976;2023-02-28T01:30:30;8.52;;;5.30;;
65665;SDS011;52365;47.464;18.976;2023-02-28T01:31:08;8.60;;;5.05;;
65665;SDS011;52365;47.464;18.976;2023-02-28T01:31:44;9.77;;;5.22;;
65665;SDS011;52365;47.464;18.976;2023-02-28T01:32:20;8.95;;;5.50;;
65665;SDS011;52365;47.464;18.976;2023-02-28T01:32:57;8.07;;;4.87;;
65665;SDS011;52365;47.464;18.976;2023-02-28T01:33:34;8.40;;;5.05;;
65665;SDS011;52365;47.464;18.976;2023-02-28T01:34:10;8.80;;;5.23;;
65665;SDS011;52365;47.464;18.976;2023-02-28T01:34:46;10.80;;;5.30;;
65665;SDS011;52365;47.464;18.976;2023-02-28T01:35:22;8.00;;;5.03;;
65665;SDS011;52365;47.464;18.976;2023-02-28T01:36:05;8.55;;;5.25;;
65665;SDS011;52365;47.464;18.976;2023-02-28T01:36:47;8.85;;;5.00;;
65665;SDS011;52365;47.464;18.976;2023-02-28T01:37:23;8.57;;;5.18;;
65665;SDS011;52365;47.464;18.976;2023-02-28T01:37:59;9.25;;;5.10;;
65665;SDS011;52365;47.464;18.976;2023-02-28T01:38:35;9.98;;;4.80;;
65665;SDS011;52365;47.464;18.976;2023-02-28T01:39:12;9.05;;;5.15;;
65665;SDS011;52365;47.464;18.976;2023-02-28T01:39:48;8.48;;;5.10;;
65665;SDS011;52365;47.464;18.976;2023-02-28T01:40:24;8.35;;;5.12;;
65665;SDS011;52365;47.464;18.976;2023-02-28T01:41:00;9.70;;;4.93;;
65665;SDS011;52365;47.464;18.976;2023-02-28T01:41:36;9.02;;;5.50;;
65665;SDS011;52365;47.464;18.976;2023-02-28T01:42:12;8.48;;;4.80;;
65665;SDS011;52365;47.464;18.976;2023-02-28T01:42:49;9.05;;;5.12;;
65665;SDS011;52365;47.464;18.976;2023-02-28T01:43:28;7.47;;;4.78;;
65665;SDS011;52365;47.464;18.976;2023-02-28T01:45:58;7.03;;;4.80;;
65665;SDS011;52365;47.464;18.976;2023-02-28T01:46:35;8.63;;;4.82;;
65665;SDS011;52365;47.464;18.976;2023-02-28T01:47:11;9.55;;;4.97;;
65665;SDS011;52365;47.464;18.976;2023-02-28T01:47:48;8.73;;;5.10;;
65665;SDS011;52365;47.464;18.976;2023-02-28T01:48:28;7.32;;;4.65;;
65665;SDS011;52365;47.464;18.976;2023-02-28T01:49:12;9.45;;;4.87;;
65665;SDS011;52365;47.464;18.976;2023-02-28T01:49:52;9.77;;;5.60;;
65665;SDS011;52365;47.464;18.976;2023-02-28T01:50:29;10.45;;;5.05;;
65665;SDS011;52365;47.464;18.976;2023-02-28T01:51:15;7.78;;;4.87;;
65665;SDS011;52365;47.464;18.976;2023-02-28T01:52:02;7.25;;;4.70;;
65665;SDS011;52365;47.464;18.976;2023-02-28T01:52:38;9.07;;;4.97;;
65665;SDS011;52365;47.464;18.976;2023-02-28T01:53:19;9.60;;;5.40;;
65665;SDS011;52365;47.464;18.976;2023-02-28T01:54:04;7.53;;;4.78;;
65665;SDS011;52365;47.464;18.976;2023-02-28T01:54:50;9.45;;;5.30;;
65665;SDS011;52365;47.464;18.976;2023-02-28T01:55:29;9.10;;;4.97;;
65665;SDS011;52365;47.464;18.976;2023-02-28T01:56:07;10.43;;;5.45;;
65665;SDS011;52365;47.464;18.976;2023-02-28T01:56:53;10.52;;;5.37;;
65665;SDS011;52365;47.464;18.976;2023-02-28T01:57:34;8.45;;;4.90;;
65665;SDS011;52365;47.464;18.976;2023-02-28T01:58:13;9.82;;;4.95;;
65665;SDS011;52365;47.464;18.976;2023-02-28T01:58:50;8.35;;;4.95;;
65665;SDS011;52365;47.464;18.976;2023-02-28T01:59:50;8.73;;;4.82;;
65665;SDS011;52365;47.464;18.976;2023-02-28T02:00:28;9.43;;;5.05;;
65665;SDS011;52365;47.464;18.976;2023-02-28T02:01:05;9.60;;;5.00;;
65665;SDS011;52365;47.464;18.976;2023-02-28T02:01:41;8.35;;;4.70;;
65665;SDS011;52365;47.464;18.976;2023-02-28T02:02:19;7.57;;;4.85;;
65665;SDS011;52365;47.464;18.976;2023-02-28T02:02:57;8.73;;;4.70;;
65665;SDS011;52365;47.464;18.976;2023-02-28T02:03:36;8.52;;;4.72;;
65665;SDS011;52365;47.464;18.976;2023-02-28T02:04:12;9.32;;;4.70;;
65665;SDS011;52365;47.464;18.976;2023-02-28T02:04:54;8.50;;;4.62;;
65665;SDS011;52365;47.464;18.976;2023-02-28T02:05:34;8.40;;;4.82;;
65665;SDS011;52365;47.464;18.976;2023-02-28T02:06:12;8.30;;;4.93;;
65665;SDS011;52365;47.464;18.976;2023-02-28T02:06:48;9.48;;;5.18;;
65665;SDS011;52365;47.464;18.976;2023-02-28T02:07:25;8.88;;;5.22;;
65665;SDS011;52365;47.464;18.976;2023-02-28T02:08:03;10.07;;;5.37;;
65665;SDS011;52365;47.464;18.976;2023-02-28T02:08:42;8.07;;;5.20;;
65665;SDS011;52365;47.464;18.976;2023-02-28T02:09:18;7.20;;;4.65;;
65665;SDS011;52365;47.464;18.976;2023-02-28T02:10:02;8.18;;;4.68;;
65665;SDS011;52365;47.464;18.976;2023-02-28T02:11:00;8.95;;;5.03;;
65665;SDS011;52365;47.464;18.976;2023-02-28T02:11:37;9.25;;;5.07;;
65665;SDS011;52365;47.464;18.976;2023-02-28T02:12:26;8.95;;;4.85;;
65665;SDS011;52365;47.464;18.976;2023-02-28T02:15:59;8.35;;;4.62;;
65665;SDS011;52365;47.464;18.976;2023-02-28T02:17:35;9.65;;;4.82;;
65665;SDS011;52365;47.464;18.976;2023-02-28T02:19:53;8.82;;;5.10;;
65665;SDS011;52365;47.464;18.976;2023-02-28T02:21:02;7.93;;;5.07;;
65665;SDS011;52365;47.464;18.976;2023-02-28T02:28:50;8.23;;;4.90;;
65665;SDS011;52365;47.464;18.976;2023-02-28T02:36:06;10.73;;;5.65;;
65665;SDS011;52365;47.464;18.976;2023-02-28T02:36:53;8.95;;;5.45;;
65665;SDS011;52365;47.464;18.976;2023-02-28T02:37:39;9.75;;;5.30;;
65665;SDS011;52365;47.464;18.976;2023-02-28T02:38:35;8.45;;;4.90;;
65665;SDS011;52365;47.464;18.976;2023-02-28T02:39:36;8.43;;;5.18;;
65665;SDS011;52365;47.464;18.976;2023-02-28T02:40:21;9.30;;;5.40;;
65665;SDS011;52365;47.464;18.976;2023-02-28T02:41:14;7.65;;;4.85;;
65665;SDS011;52365;47.464;18.976;2023-02-28T02:43:35;9.73;;;5.50;;
65665;SDS011;52365;47.464;18.976;2023-02-28T02:45:12;10.02;;;5.60;;
65665;SDS011;52365;47.464;18.976;2023-02-28T02:45:57;9.13;;;5.60;;
65665;SDS011;52365;47.464;18.976;2023-02-28T02:46:39;8.75;;;5.32;;
65665;SDS011;52365;47.464;18.976;2023-02-28T02:47:18;9.70;;;5.20;;
65665;SDS011;52365;47.464;18.976;2023-02-28T02:47:58;10.43;;;5.43;;
65665;SDS011;52365;47.464;18.976;2023-02-28T02:48:36;9.55;;;5.50;;
65665;SDS011;52365;47.464;18.976;2023-02-28T02:49:17;9.85;;;5.50;;
65665;SDS011;52365;47.464;18.976;2023-02-28T02:50:01;9.65;;;5.80;;
65665;SDS011;52365;47.464;18.976;2023-02-28T02:50:44;9.65;;;5.22;;
65665;SDS011;52365;47.464;18.976;2023-02-28T02:51:25;10.55;;;5.80;;
65665;SDS011;52365;47.464;18.976;2023-02-28T02:52:04;9.65;;;6.00;;
65665;SDS011;52365;47.464;18.976;2023-02-28T02:52:45;10.57;;;6.03;;
65665;SDS011;52365;47.464;18.976;2023-02-28T02:53:28;10.90;;;5.68;;
65665;SDS011;52365;47.464;18.976;2023-02-28T02:54:09;10.07;;;5.70;;
65665;SDS011;52365;47.464;18.976;2023-02-28T02:54:52;9.63;;;5.75;;
65665;SDS011;52365;47.464;18.976;2023-02-28T02:55:31;11.10;;;5.60;;
65665;SDS011;52365;47.464;18.976;2023-02-28T02:56:14;10.85;;;5.60;;
65665;SDS011;52365;47.464;18.976;2023-02-28T02:56:54;9.95;;;5.55;;
65665;SDS011;52365;47.464;18.976;2023-02-28T02:57:35;10.40;;;5.93;;
65665;SDS011;52365;47.464;18.976;2023-02-28T02:58:22;11.15;;;5.82;;
65665;SDS011;52365;47.464;18.976;2023-02-28T02:59:03;11.23;;;5.80;;
65665;SDS011;52365;47.464;18.976;2023-02-28T02:59:44;8.82;;;5.57;;
65665;SDS011;52365;47.464;18.976;2023-02-28T03:00:22;10.65;;;5.72;;
65665;SDS011;52365;47.464;18.976;2023-02-28T03:01:02;8.95;;;5.70;;
65665;SDS011;52365;47.464;18.976;2023-02-28T03:01:40;10.05;;;5.60;;
65665;SDS011;52365;47.464;18.976;2023-02-28T03:02:17;10.45;;;5.80;;
65665;SDS011;52365;47.464;18.976;2023-02-28T03:02:55;8.63;;;5.37;;
65665;SDS011;52365;47.464;18.976;2023-02-28T03:03:32;8.98;;;5.78;;
65665;SDS011;52365;47.464;18.976;2023-02-28T03:04:15;10.80;;;6.00;;
65665;SDS011;52365;47.464;18.976;2023-02-28T03:04:56;10.25;;;5.62;;
65665;SDS011;52365;47.464;18.976;2023-02-28T03:05:48;8.32;;;5.62;;
65665;SDS011;52365;47.464;18.976;2023-02-28T03:06:25;9.70;;;5.50;;
65665;SDS011;52365;47.464;18.976;2023-02-28T03:07:02;8.38;;;5.43;;
65665;SDS011;52365;47.464;18.976;2023-02-28T03:07:38;8.77;;;5.53;;
65665;SDS011;52365;47.464;18.976;2023-02-28T03:08:14;8.75;;;5.18;;
65665;SDS011;52365;47.464;18.976;2023-02-28T03:08:51;10.77;;;5.80;;
65665;SDS011;52365;47.464;18.976;2023-02-28T03:09:27;8.95;;;5.30;;
65665;SDS011;52365;47.464;18.976;2023-02-28T03:10:25;8.80;;;5.60;;
65665;SDS011;52365;47.464;18.976;2023-02-28T03:11:06;9.52;;;5.45;;
65665;SDS011;52365;47.464;18.976;2023-02-28T03:11:50;11.35;;;5.55;;
65665;SDS011;52365;47.464;18.976;2023-02-28T03:12:33;10.18;;;5.70;;
65665;SDS011;52365;47.464;18.976;2023-02-28T03:15:12;10.15;;;5.80;;
65665;SDS011;52365;47.464;18.976;2023-02-28T03:18:31;10.40;;;5.57;;
65665;SDS011;52365;47.464;18.976;2023-02-28T03:20:45;9.90;;;5.18;;
65665;SDS011;52365;47.464;18.976;2023-02-28T03:24:31;8.82;;;5.45;;
65665;SDS011;52365;47.464;18.976;2023-02-28T03:25:59;9.68;;;5.10;;
65665;SDS011;52365;47.464;18.976;2023-02-28T03:26:42;9.10;;;5.00;;
65665;SDS011;52365;47.464;18.976;2023-02-28T03:27:24;8.52;;;5.22;;
65665;SDS011;52365;47.464;18.976;2023-02-28T03:28:15;10.00;;;5.43;;
65665;SDS011;52365;47.464;18.976;2023-02-28T03:30:17;8.32;;;5.18;;
65665;SDS011;52365;47.464;18.976;2023-02-28T03:31:16;9.27;;;5.18;;
65665;SDS011;52365;47.464;18.976;2023-02-28T03:31:54;8.75;;;5.37;;
65665;SDS011;52365;47.464;18.976;2023-02-28T03:32:44;9.52;;;5.12;;
65665;SDS011;52365;47.464;18.976;2023-02-28T03:33:47;9.02;;;5.00;;
65665;SDS011;52365;47.464;18.976;2023-02-28T03:34:34;8.82;;;5.12;;
65665;SDS011;52365;47.464;18.976;2023-02-28T03:35:18;8.53;;;5.10;;
65665;SDS011;52365;47.464;18.976;2023-02-28T03:36:07;8.63;;;5.20;;
65665;SDS011;52365;47.464;18.976;2023-02-28T03:36:49;8.85;;;5.10;;
65665;SDS011;52365;47.464;18.976;2023-02-28T03:37:29;9.50;;;5.20;;
65665;SDS011;52365;47.464;18.976;2023-02-28T03:38:09;9.55;;;5.30;;
65665;SDS011;52365;47.464;18.976;2023-02-28T03:39:01;8.75;;;5.10;;
65665;SDS011;52365;47.464;18.976;2023-02-28T03:39:45;8.98;;;5.00;;
65665;SDS011;52365;47.464;18.976;2023-02-28T03:40:25;9.50;;;5.32;;
65665;SDS011;52365;47.464;18.976;2023-02-28T03:41:21;8.73;;;5.10;;
65665;SDS011;52365;47.464;18.976;2023-02-28T03:42:02;8.82;;;5.20;;
65665;SDS011;52365;47.464;18.976;2023-02-28T03:42:45;9.15;;;5.50;;
65665;SDS011;52365;47.464;18.976;2023-02-28T03:43:26;9.95;;;5.28;;
65665;SDS011;52365;47.464;18.976;2023-02-28T03:44:12;9.70;;;5.12;;
65665;SDS011;52365;47.464;18.976;2023-02-28T03:44:53;9.38;;;5.32;;
65665;SDS011;52365;47.464;18.976;2023-02-28T03:45:35;7.47;;;4.82;;
65665;SDS011;52365;47.464;18.976;2023-02-28T03:46:14;11.48;;;5.22;;
65665;SDS011;52365;47.464;18.976;2023-02-28T03:47:03;9.68;;;4.95;;
65665;SDS011;52365;47.464;18.976;2023-02-28T03:47:50;8.07;;;4.97;;
65665;SDS011;52365;47.464;18.976;2023-02-28T03:48:42;7.97;;;4.93;;
65665;SDS011;52365;47.464;18.976;2023-02-28T03:49:28;8.43;;;4.97;;
65665;SDS011;52365;47.464;18.976;2023-02-28T03:50:11;9.13;;;4.97;;
65665;SDS011;52365;47.464;18.976;2023-02-28T03:50:53;8.05;;;4.97;;
65665;SDS011;52365;47.464;18.976;2023-02-28T03:51:34;7.65;;;4.62;;
65665;SDS011;52365;47.464;18.976;2023-02-28T03:52:14;8.60;;;4.80;;
65665;SDS011;52365;47.464;18.976;2023-02-28T03:53:00;8.88;;;5.05;;
65665;SDS011;52365;47.464;18.976;2023-02-28T03:53:44;10.10;;;5.10;;
65665;SDS011;52365;47.464;18.976;2023-02-28T03:54:27;9.10;;;5.22;;
65665;SDS011;52365;47.464;18.976;2023-02-28T03:55:11;8.57;;;4.93;;
65665;SDS011;52365;47.464;18.976;2023-02-28T03:55:53;8.50;;;5.07;;
65665;SDS011;52365;47.464;18.976;2023-02-28T03:56:34;8.65;;;5.00;;
65665;SDS011;52365;47.464;18.976;2023-02-28T03:57:17;8.75;;;4.85;;
65665;SDS011;52365;47.464;18.976;2023-02-28T03:58:24;8.65;;;5.10;;
65665;SDS011;52365;47.464;18.976;2023-02-28T04:00:04;8.48;;;4.82;;
65665;SDS011;52365;47.464;18.976;2023-02-28T04:00:27;10.65;;;5.07;;
65665;SDS011;52365;47.464;18.976;2023-02-28T04:01:09;9.15;;;5.10;;
65665;SDS011;52365;47.464;18.976;2023-02-28T04:01:48;8.88;;;4.80;;
65665;SDS011;52365;47.464;18.976;2023-02-28T04:02:25;9.13;;;5.00;;
65665;SDS011;52365;47.464;18.976;2023-02-28T04:03:02;9.15;;;5.20;;
65665;SDS011;52365;47.464;18.976;2023-02-28T04:03:39;9.50;;;4.95;;
65665;SDS011;52365;47.464;18.976;2023-02-28T04:04:15;8.52;;;4.97;;
65665;SDS011;52365;47.464;18.976;2023-02-28T04:04:52;8.85;;;4.70;;
65665;SDS011;52365;47.464;18.976;2023-02-28T04:05:28;9.45;;;4.65;;
65665;SDS011;52365;47.464;18.976;2023-02-28T04:06:06;9.13;;;5.12;;
65665;SDS011;52365;47.464;18.976;2023-02-28T04:06:49;8.65;;;4.87;;
65665;SDS011;52365;47.464;18.976;2023-02-28T04:07:29;7.85;;;4.70;;
65665;SDS011;52365;47.464;18.976;2023-02-28T04:08:07;9.32;;;4.90;;
65665;SDS011;52365;47.464;18.976;2023-02-28T04:08:43;8.77;;;5.00;;
65665;SDS011;52365;47.464;18.976;2023-02-28T04:09:20;7.78;;;5.05;;
65665;SDS011;52365;47.464;18.976;2023-02-28T04:09:56;10.00;;;5.22;;
65665;SDS011;52365;47.464;18.976;2023-02-28T04:10:33;7.95;;;4.97;;
65665;SDS011;52365;47.464;18.976;2023-02-28T04:12:14;10.10;;;5.45;;
65665;SDS011;52365;47.464;18.976;2023-02-28T04:12:50;8.35;;;4.70;;
65665;SDS011;52365;47.464;18.976;2023-02-28T04:13:26;9.20;;;5.10;;
65665;SDS011;52365;47.464;18.976;2023-02-28T04:14:03;8.60;;;5.20;;
65665;SDS011;52365;47.464;18.976;2023-02-28T04:14:39;8.15;;;5.12;;
65665;SDS011;52365;47.464;18.976;2023-02-28T04:15:16;10.05;;;5.00;;
65665;SDS011;52365;47.464;18.976;2023-02-28T04:15:52;9.18;;;5.30;;
65665;SDS011;52365;47.464;18.976;2023-02-28T04:16:29;8.07;;;4.50;;
65665;SDS011;52365;47.464;18.976;2023-02-28T04:17:06;9.90;;;4.90;;
65665;SDS011;52365;47.464;18.976;2023-02-28T04:17:42;8.88;;;4.82;;
65665;SDS011;52365;47.464;18.976;2023-02-28T04:18:18;9.13;;;5.10;;
65665;SDS011;52365;47.464;18.976;2023-02-28T04:18:54;8.85;;;4.93;;
65665;SDS011;52365;47.464;18.976;2023-02-28T04:19:37;8.70;;;5.18;;
65665;SDS011;52365;47.464;18.976;2023-02-28T04:20:13;8.43;;;4.90;;
65665;SDS011;52365;47.464;18.976;2023-02-28T04:20:49;8.07;;;5.00;;
65665;SDS011;52365;47.464;18.976;2023-02-28T04:21:25;8.37;;;5.10;;
65665;SDS011;52365;47.464;18.976;2023-02-28T04:22:01;8.90;;;5.12;;
65665;SDS011;52365;47.464;18.976;2023-02-28T04:22:37;8.95;;;5.45;;
65665;SDS011;52365;47.464;18.976;2023-02-28T04:23:13;10.55;;;5.43;;
65665;SDS011;52365;47.464;18.976;2023-02-28T04:23:49;8.98;;;5.30;;
65665;SDS011;52365;47.464;18.976;2023-02-28T04:24:27;9.75;;;5.80;;
65665;SDS011;52365;47.464;18.976;2023-02-28T04:25:03;10.05;;;5.45;;
65665;SDS011;52365;47.464;18.976;2023-02-28T04:25:41;9.43;;;5.47;;
65665;SDS011;52365;47.464;18.976;2023-02-28T04:26:17;10.05;;;5.50;;
65665;SDS011;52365;47.464;18.976;2023-02-28T04:26:54;9.35;;;5.53;;
65665;SDS011;52365;47.464;18.976;2023-02-28T04:27:31;9.00;;;5.32;;
65665;SDS011;52365;47.464;18.976;2023-02-28T04:28:07;9.10;;;5.53;;
65665;SDS011;52365;47.464;18.976;2023-02-28T04:28:43;10.45;;;6.00;;